Time;durP1;ratioP1;P1;durP2;ratioP2;P2;SDS_P1;SDS_P2;PMS_P1;PMS_P2;Temp;Humidity;BMP_temperature;BMP_pressure;BME280_temperature;BME280_humidity;BME280_pressure;Samples;Min_cycle;Max_cycle;Signal;HPM_P1;HPM_P2
2022/10/26 00:00:28;;;;;;;17.15;6.22;;;;;;;;;;1033040;28;20030;-77
2022/10/26 00:01:05;;;;;;;17.83;6.28;;;;;;;;;;1031776;28;20034;-77
2022/10/26 00:01:36;;;;;;;15.32;7.03;;;;;;;;;;1029471;28;20023;-77
2022/10/26 00:02:07;;;;;;;11.85;4.85;;;;;;;;;;1029741;28;20463;-77
2022/10/26 00:02:38;;;;;;;16.40;7.22;;;;;;;;;;1029695;28;20434;-77
2022/10/26 00:03:08;;;;;;;16.52;5.88;;;;;;;;;;1029741;28;20026;-77
2022/10/26 00:03:40;;;;;;;13.10;6.57;;;;;;;;;;1031416;28;20041;-77
2022/10/26 00:04:11;;;;;;;26.30;8.15;;;;;;;;;;1034859;28;20104;-77
2022/10/26 00:04:41;;;;;;;12.98;5.35;;;;;;;;;;1033390;28;20441;-77
2022/10/26 00:05:12;;;;;;;14.25;7.10;;;;;;;;;;1033226;28;20132;-77
2022/10/26 00:05:43;;;;;;;18.42;6.28;;;;;;;;;;1033141;28;20117;-77
2022/10/26 00:06:15;;;;;;;11.88;6.03;;;;;;;;;;1029645;28;20598;-77
2022/10/26 00:06:45;;;;;;;15.80;6.18;;;;;;;;;;1029639;28;20028;-78
2022/10/26 00:07:16;;;;;;;13.90;6.78;;;;;;;;;;1028326;28;20033;-77
2022/10/26 00:07:47;;;;;;;10.65;5.68;;;;;;;;;;1033298;28;20030;-77
2022/10/26 00:08:17;;;;;;;11.55;6.20;;;;;;;;;;1033949;28;20117;-77
2022/10/26 00:08:48;;;;;;;15.13;6.60;;;;;;;;;;1034003;28;20099;-77
2022/10/26 00:09:19;;;;;;;14.15;7.22;;;;;;;;;;1031606;28;20022;-77
2022/10/26 00:09:49;;;;;;;16.95;7.47;;;;;;;;;;1030154;28;20154;-77
2022/10/26 00:10:20;;;;;;;11.65;6.68;;;;;;;;;;1030233;28;20490;-77
2022/10/26 00:10:51;;;;;;;11.98;6.65;;;;;;;;;;1030274;28;20033;-77
2022/10/26 00:11:22;;;;;;;15.13;5.97;;;;;;;;;;1030207;28;20383;-77
2022/10/26 00:11:52;;;;;;;16.27;6.88;;;;;;;;;;1030054;28;20545;-77
2022/10/26 00:12:23;;;;;;;14.25;6.55;;;;;;;;;;1034081;28;20037;-77
2022/10/26 00:12:53;;;;;;;14.27;5.72;;;;;;;;;;1029824;28;20029;-77
2022/10/26 00:13:24;;;;;;;12.68;6.60;;;;;;;;;;1029917;28;20407;-77
2022/10/26 00:13:55;;;;;;;18.15;7.00;;;;;;;;;;1029766;28;20062;-77
2022/10/26 00:14:25;;;;;;;15.70;5.22;;;;;;;;;;1029955;28;20296;-77
2022/10/26 00:14:56;;;;;;;15.73;6.72;;;;;;;;;;1034403;28;20080;-77
2022/10/26 00:15:27;;;;;;;15.15;6.97;;;;;;;;;;1035958;28;20032;-77
2022/10/26 00:15:57;;;;;;;21.65;7.90;;;;;;;;;;1035795;28;20025;-77
2022/10/26 00:16:28;;;;;;;13.82;5.75;;;;;;;;;;1031692;28;20119;-78
2022/10/26 00:16:58;;;;;;;12.82;5.82;;;;;;;;;;1030580;28;20490;-77
2022/10/26 00:17:29;;;;;;;23.33;7.40;;;;;;;;;;1029922;28;20035;-77
2022/10/26 00:18:00;;;;;;;11.38;6.03;;;;;;;;;;1030008;28;20023;-77
2022/10/26 00:18:30;;;;;;;18.58;8.10;;;;;;;;;;1029977;28;20518;-77
2022/10/26 00:19:01;;;;;;;18.17;7.45;;;;;;;;;;1031045;28;20022;-77
2022/10/26 00:19:34;;;;;;;12.82;6.95;;;;;;;;;;1028703;28;20034;-77
2022/10/26 00:20:05;;;;;;;17.55;5.63;;;;;;;;;;1030548;28;20117;-77
2022/10/26 00:20:36;;;;;;;15.13;7.38;;;;;;;;;;1033826;28;20022;-77
2022/10/26 00:21:07;;;;;;;18.30;6.47;;;;;;;;;;1030521;28;20125;-77
2022/10/26 00:21:37;;;;;;;18.42;7.13;;;;;;;;;;1030078;28;20015;-77
2022/10/26 00:22:08;;;;;;;15.48;6.57;;;;;;;;;;1032477;28;20117;-77
2022/10/26 00:22:40;;;;;;;10.32;5.82;;;;;;;;;;1028229;28;20074;-77
2022/10/26 00:23:11;;;;;;;13.52;6.45;;;;;;;;;;1032419;28;20085;-77
2022/10/26 00:23:42;;;;;;;24.50;9.55;;;;;;;;;;1030081;28;20104;-77
2022/10/26 00:24:12;;;;;;;13.70;6.40;;;;;;;;;;1030235;28;20046;-77
2022/10/26 00:24:43;;;;;;;12.85;4.80;;;;;;;;;;1030323;28;20027;-77
2022/10/26 00:25:13;;;;;;;11.27;5.10;;;;;;;;;;1035808;28;20029;-77
2022/10/26 00:25:44;;;;;;;10.20;6.53;;;;;;;;;;1033803;28;20132;-78
2022/10/26 00:26:14;;;;;;;15.80;5.93;;;;;;;;;;1029923;28;20560;-78
2022/10/26 00:26:46;;;;;;;13.80;5.80;;;;;;;;;;1029754;28;20027;-77
2022/10/26 00:27:16;;;;;;;9.63;5.57;;;;;;;;;;1029088;28;20041;-77
2022/10/26 00:27:47;;;;;;;14.65;5.05;;;;;;;;;;1027773;28;20019;-77
2022/10/26 00:28:17;;;;;;;12.13;5.35;;;;;;;;;;1027830;28;20077;-77
2022/10/26 00:28:48;;;;;;;14.35;5.85;;;;;;;;;;1028032;28;20054;-77
2022/10/26 00:29:19;;;;;;;13.85;6.65;;;;;;;;;;1027642;28;20034;-77
2022/10/26 00:29:49;;;;;;;19.10;6.68;;;;;;;;;;1030457;28;20052;-77
2022/10/26 00:30:20;;;;;;;13.90;5.38;;;;;;;;;;1033893;28;20022;-77
2022/10/26 00:30:50;;;;;;;11.60;5.07;;;;;;;;;;1032815;28;20445;-77
2022/10/26 00:31:21;;;;;;;14.30;5.13;;;;;;;;;;1033675;28;20372;-77
2022/10/26 00:31:51;;;;;;;13.20;5.25;;;;;;;;;;1033624;28;20549;-77
2022/10/26 00:32:22;;;;;;;10.13;5.00;;;;;;;;;;1029977;28;20081;-77
2022/10/26 00:32:52;;;;;;;18.67;7.35;;;;;;;;;;1032060;28;20057;-77
2022/10/26 00:33:23;;;;;;;11.90;4.93;;;;;;;;;;1027476;28;20053;-77
2022/10/26 00:33:54;;;;;;;14.48;5.20;;;;;;;;;;1023625;29;20396;-79
2022/10/26 00:34:25;;;;;;;11.10;5.38;;;;;;;;;;1027960;28;20022;-77
2022/10/26 00:34:55;;;;;;;11.18;5.32;;;;;;;;;;1028138;28;20380;-77
2022/10/26 00:35:26;;;;;;;9.70;5.68;;;;;;;;;;1031732;28;20036;-80
2022/10/26 00:35:56;;;;;;;15.98;6.72;;;;;;;;;;1030299;28;20031;-80
2022/10/26 00:36:27;;;;;;;10.88;4.93;;;;;;;;;;1030158;28;20034;-80
2022/10/26 00:36:57;;;;;;;9.32;3.97;;;;;;;;;;1030184;28;20049;-80
2022/10/26 00:37:28;;;;;;;12.77;6.68;;;;;;;;;;1030044;28;20030;-80
2022/10/26 00:37:58;;;;;;;12.48;4.47;;;;;;;;;;1030140;28;20022;-80
2022/10/26 00:38:29;;;;;;;9.45;4.07;;;;;;;;;;1030248;28;20534;-77
2022/10/26 00:39:00;;;;;;;10.48;4.55;;;;;;;;;;1030243;28;20500;-77
2022/10/26 00:39:30;;;;;;;12.45;4.47;;;;;;;;;;1030029;28;20122;-77
2022/10/26 00:40:01;;;;;;;18.52;4.85;;;;;;;;;;1029073;28;20031;-77
2022/10/26 00:40:31;;;;;;;15.15;4.85;;;;;;;;;;1034919;28;20030;-77
2022/10/26 00:41:02;;;;;;;12.82;4.10;;;;;;;;;;1031830;28;20033;-77
2022/10/26 00:41:34;;;;;;;11.13;4.65;;;;;;;;;;1031655;28;20119;-77
2022/10/26 00:42:04;;;;;;;11.70;5.28;;;;;;;;;;1030021;28;20057;-78
2022/10/26 00:42:35;;;;;;;13.05;5.10;;;;;;;;;;1029927;28;20398;-77
2022/10/26 00:43:12;;;;;;;9.00;4.95;;;;;;;;;;1034028;28;20044;-77
2022/10/26 00:43:43;;;;;;;11.40;4.55;;;;;;;;;;1032716;28;20030;-77
2022/10/26 00:44:32;;;;;;;6.90;4.30;;;;;;;;;;1031759;28;20077;-77
2022/10/26 00:45:19;;;;;;;10.70;3.47;;;;;;;;;;1030953;28;20053;-77
2022/10/26 00:45:50;;;;;;;10.45;4.57;;;;;;;;;;1027029;28;20026;-77
2022/10/26 00:46:23;;;;;;;11.43;4.63;;;;;;;;;;1031512;28;20030;-77
2022/10/26 00:46:53;;;;;;;11.45;3.78;;;;;;;;;;1029920;28;20085;-77
2022/10/26 00:47:41;;;;;;;8.38;3.97;;;;;;;;;;1029934;28;20161;-77
2022/10/26 00:48:21;;;;;;;10.43;4.85;;;;;;;;;;1030258;28;20030;-78
2022/10/26 00:48:54;;;;;;;11.38;5.05;;;;;;;;;;1030153;28;20085;-77
2022/10/26 00:49:24;;;;;;;8.48;4.53;;;;;;;;;;1029882;28;20029;-77
2022/10/26 00:49:56;;;;;;;8.98;4.15;;;;;;;;;;1031873;28;20461;-77
2022/10/26 00:50:27;;;;;;;17.00;4.80;;;;;;;;;;1030130;28;20122;-77
2022/10/26 00:50:58;;;;;;;13.25;6.38;;;;;;;;;;1030213;28;20042;-77
2022/10/26 00:51:41;;;;;;;9.75;5.20;;;;;;;;;;1033680;28;20049;-77
2022/10/26 00:52:12;;;;;;;10.63;5.53;;;;;;;;;;1032170;28;20026;-77
2022/10/26 00:52:43;;;;;;;11.10;5.65;;;;;;;;;;1031540;28;20022;-78
2022/10/26 00:53:14;;;;;;;11.30;4.28;;;;;;;;;;1032630;28;20120;-78
2022/10/26 00:53:45;;;;;;;9.63;4.57;;;;;;;;;;1035084;28;20026;-77
2022/10/26 00:54:19;;;;;;;12.00;6.22;;;;;;;;;;1033398;28;20036;-77
2022/10/26 00:54:50;;;;;;;7.22;3.60;;;;;;;;;;1033864;28;20107;-77
2022/10/26 00:55:23;;;;;;;7.15;4.15;;;;;;;;;;1031524;28;20030;-77
2022/10/26 00:55:54;;;;;;;11.15;4.38;;;;;;;;;;1029677;28;20026;-77
2022/10/26 00:56:24;;;;;;;10.40;4.38;;;;;;;;;;1032161;28;20476;-77
2022/10/26 00:56:55;;;;;;;4.18;2.60;;;;;;;;;;1030002;28;20037;-77
2022/10/26 00:57:25;;;;;;;9.38;4.20;;;;;;;;;;1029810;28;20035;-77
2022/10/26 00:57:57;;;;;;;5.55;3.38;;;;;;;;;;1030263;28;20057;-77
2022/10/26 00:58:27;;;;;;;8.43;4.40;;;;;;;;;;1030135;28;20034;-77
2022/10/26 00:59:01;;;;;;;6.20;3.75;;;;;;;;;;1031389;28;20129;-77
2022/10/26 00:59:32;;;;;;;12.68;5.80;;;;;;;;;;1024427;28;20031;-77
2022/10/26 01:00:04;;;;;;;10.63;4.55;;;;;;;;;;1028311;28;20407;-78
2022/10/26 01:00:34;;;;;;;9.20;4.85;;;;;;;;;;1029498;28;20487;-77
2022/10/26 01:01:05;;;;;;;9.95;4.38;;;;;;;;;;1025809;28;20019;-77
2022/10/26 01:01:36;;;;;;;7.82;4.22;;;;;;;;;;1029351;28;20023;-77
2022/10/26 01:02:07;;;;;;;11.63;5.35;;;;;;;;;;1029899;28;20035;-77
2022/10/26 01:02:38;;;;;;;8.13;4.35;;;;;;;;;;1030047;28;20421;-77
2022/10/26 01:03:09;;;;;;;8.80;3.83;;;;;;;;;;1031296;28;20506;-80
2022/10/26 01:03:39;;;;;;;11.55;4.10;;;;;;;;;;1029497;28;20382;-80
2022/10/26 01:04:11;;;;;;;8.40;4.43;;;;;;;;;;1025824;28;20038;-80
2022/10/26 01:04:44;;;;;;;8.82;4.20;;;;;;;;;;1030272;28;20022;-80
2022/10/26 01:05:16;;;;;;;8.95;4.50;;;;;;;;;;1033634;28;20022;-80
2022/10/26 01:05:47;;;;;;;10.20;3.65;;;;;;;;;;1033630;28;20030;-80
2022/10/26 01:06:18;;;;;;;6.45;3.33;;;;;;;;;;1031012;28;20386;-80
2022/10/26 01:06:48;;;;;;;11.20;4.00;;;;;;;;;;1030101;28;20022;-77
2022/10/26 01:07:19;;;;;;;12.80;5.15;;;;;;;;;;1030019;28;20053;-77
2022/10/26 01:07:50;;;;;;;11.20;4.53;;;;;;;;;;1030108;28;20028;-77
2022/10/26 01:08:21;;;;;;;8.07;5.15;;;;;;;;;;1030065;28;20019;-77
2022/10/26 01:08:52;;;;;;;12.05;3.45;;;;;;;;;;1029469;28;20110;-80
2022/10/26 01:09:23;;;;;;;16.45;4.47;;;;;;;;;;1031642;28;20072;-80
2022/10/26 01:09:53;;;;;;;9.50;3.80;;;;;;;;;;1031774;28;20382;-78
2022/10/26 01:10:24;;;;;;;11.15;4.63;;;;;;;;;;1030175;28;20019;-77
2022/10/26 01:10:56;;;;;;;12.35;5.25;;;;;;;;;;1029976;28;20031;-77
2022/10/26 01:11:27;;;;;;;8.00;3.75;;;;;;;;;;1029963;28;20027;-77
2022/10/26 01:11:58;;;;;;;7.30;3.47;;;;;;;;;;1029804;28;20030;-77
2022/10/26 01:12:28;;;;;;;9.55;3.47;;;;;;;;;;1030171;28;20524;-77
2022/10/26 01:12:59;;;;;;;7.38;3.80;;;;;;;;;;1035668;28;20026;-77
2022/10/26 01:13:32;;;;;;;19.23;6.10;;;;;;;;;;1031158;28;20117;-78
2022/10/26 01:14:05;;;;;;;9.98;4.40;;;;;;;;;;1031415;28;20022;-77
2022/10/26 01:14:35;;;;;;;6.75;3.38;;;;;;;;;;1027346;28;20475;-77
2022/10/26 01:15:06;;;;;;;9.88;3.40;;;;;;;;;;1026730;28;20026;-78
2022/10/26 01:15:55;;;;;;;9.63;3.60;;;;;;;;;;1029552;28;20053;-78
2022/10/26 01:16:39;;;;;;;8.20;3.78;;;;;;;;;;1026672;28;20031;-78
2022/10/26 01:17:09;;;;;;;10.82;3.88;;;;;;;;;;1033646;28;20029;-78
2022/10/26 01:17:45;;;;;;;7.95;3.97;;;;;;;;;;1033569;28;20113;-80
2022/10/26 01:18:15;;;;;;;10.48;3.83;;;;;;;;;;1033543;28;20037;-79
2022/10/26 01:18:46;;;;;;;7.75;4.10;;;;;;;;;;1033714;28;20108;-79
2022/10/26 01:19:16;;;;;;;9.20;4.60;;;;;;;;;;1032108;28;20036;-79
2022/10/26 01:19:50;;;;;;;8.43;5.22;;;;;;;;;;1032946;28;20497;-80
2022/10/26 01:20:39;;;;;;;9.50;4.05;;;;;;;;;;1034702;28;20489;-79
2022/10/26 01:21:19;;;;;;;18.60;4.35;;;;;;;;;;1034847;28;20061;-80
2022/10/26 01:22:10;;;;;;;7.55;4.20;;;;;;;;;;1030393;28;20022;-80
2022/10/26 01:22:47;;;;;;;9.85;4.47;;;;;;;;;;1030787;28;20038;-79
2022/10/26 01:23:40;;;;;;;20.90;4.47;;;;;;;;;;1031439;28;20022;-79
2022/10/26 01:24:18;;;;;;;7.43;3.40;;;;;;;;;;1033516;28;20121;-79
2022/10/26 01:25:08;;;;;;;7.82;3.22;;;;;;;;;;1031791;28;20207;-79
2022/10/26 01:25:39;;;;;;;;;;;;;;;;;;1029702;28;20026;-79
2022/10/26 01:26:28;;;;;;;15.23;4.68;;;;;;;;;;1030287;28;20000;-79
2022/10/26 01:27:17;;;;;;;18.80;3.90;;;;;;;;;;1028819;28;20034;-79
2022/10/26 01:27:50;;;;;;;7.13;4.75;;;;;;;;;;1033175;28;20034;-80
2022/10/26 01:28:20;;;;;;;17.50;4.90;;;;;;;;;;1032207;28;20030;-79
2022/10/26 01:29:01;;;;;;;12.82;4.40;;;;;;;;;;1032913;28;20021;-79
2022/10/26 01:29:41;;;;;;;6.80;3.33;;;;;;;;;;1033789;28;20470;-80
2022/10/26 01:30:12;;;;;;;9.55;3.90;;;;;;;;;;1030386;28;20089;-79
2022/10/26 01:30:44;;;;;;;6.50;3.47;;;;;;;;;;1032546;28;20469;-79
2022/10/26 01:31:19;;;;;;;14.32;4.72;;;;;;;;;;1032538;28;20098;-79
2022/10/26 01:31:55;;;;;;;5.43;3.38;;;;;;;;;;1032433;28;20098;-79
2022/10/26 01:32:30;;;;;;;10.52;3.88;;;;;;;;;;1031773;28;20037;-79
2022/10/26 01:33:01;;;;;;;8.38;3.20;;;;;;;;;;1032826;28;20037;-80
2022/10/26 01:33:43;;;;;;;5.68;3.03;;;;;;;;;;1030889;28;20077;-79
2022/10/26 01:34:18;;;;;;;6.28;3.13;;;;;;;;;;1029134;28;20047;-79
2022/10/26 01:34:55;;;;;;;6.97;3.85;;;;;;;;;;1030515;28;20457;-79
2022/10/26 01:35:27;;;;;;;9.30;4.72;;;;;;;;;;1030614;28;20093;-79
2022/10/26 01:36:04;;;;;;;9.88;4.05;;;;;;;;;;1032263;28;20482;-79
2022/10/26 01:36:38;;;;;;;12.48;3.78;;;;;;;;;;1034517;28;20033;-79
2022/10/26 01:37:13;;;;;;;6.75;3.22;;;;;;;;;;1033093;28;20088;-79
2022/10/26 01:38:02;;;;;;;6.68;2.85;;;;;;;;;;1035429;28;20124;-79
2022/10/26 01:38:36;;;;;;;10.57;3.63;;;;;;;;;;1034846;28;20022;-79
2022/10/26 01:39:18;;;;;;;6.07;3.40;;;;;;;;;;1034619;28;20029;-79
2022/10/26 01:39:54;;;;;;;8.32;3.45;;;;;;;;;;1034394;28;20457;-79
2022/10/26 01:40:28;;;;;;;5.05;3.03;;;;;;;;;;1031506;28;20038;-79
2022/10/26 01:41:15;;;;;;;7.65;4.00;;;;;;;;;;1032014;28;20026;-79
2022/10/26 01:41:45;;;;;;;6.82;3.10;;;;;;;;;;1031610;28;20030;-79
2022/10/26 01:42:17;;;;;;;6.95;3.95;;;;;;;;;;1030482;28;20023;-79
2022/10/26 01:42:49;;;;;;;8.77;2.53;;;;;;;;;;1030971;28;20034;-79
2022/10/26 01:43:25;;;;;;;6.25;2.63;;;;;;;;;;1029729;28;20510;-79
2022/10/26 01:43:58;;;;;;;5.47;2.47;;;;;;;;;;1030599;28;20029;-79
2022/10/26 01:44:30;;;;;;;8.00;2.97;;;;;;;;;;1032256;28;20161;-80
2022/10/26 01:45:03;;;;;;;9.68;3.90;;;;;;;;;;1028508;28;20026;-80
2022/10/26 01:45:36;;;;;;;9.98;4.15;;;;;;;;;;1027919;28;20022;-79
2022/10/26 01:46:08;;;;;;;6.95;3.58;;;;;;;;;;1030065;28;20037;-80
2022/10/26 01:46:40;;;;;;;6.53;4.15;;;;;;;;;;1028124;28;20019;-79
2022/10/26 01:47:12;;;;;;;9.05;4.18;;;;;;;;;;1026165;28;20489;-79
2022/10/26 01:47:44;;;;;;;5.80;2.80;;;;;;;;;;1026594;28;20137;-80
2022/10/26 01:48:16;;;;;;;8.48;3.70;;;;;;;;;;1021699;28;20061;-79
2022/10/26 01:48:47;;;;;;;7.05;2.80;;;;;;;;;;1022588;28;20031;-80
2022/10/26 01:49:20;;;;;;;6.90;4.07;;;;;;;;;;1021611;29;20023;-79
2022/10/26 01:49:52;;;;;;;12.57;3.20;;;;;;;;;;1021549;28;20067;-80
2022/10/26 01:50:23;;;;;;;7.63;3.83;;;;;;;;;;1026865;28;20027;-79
2022/10/26 01:50:55;;;;;;;6.20;3.20;;;;;;;;;;1027738;28;20498;-79
2022/10/26 01:51:26;;;;;;;5.32;3.33;;;;;;;;;;1026812;28;20422;-78
2022/10/26 01:51:57;;;;;;;5.63;3.50;;;;;;;;;;1024743;28;20083;-78
2022/10/26 01:52:28;;;;;;;6.97;3.25;;;;;;;;;;1023634;28;20023;-78
2022/10/26 01:52:58;;;;;;;6.63;2.88;;;;;;;;;;1027318;28;20035;-79
2022/10/26 01:53:29;;;;;;;9.23;6.15;;;;;;;;;;1030039;28;20060;-78
2022/10/26 01:54:00;;;;;;;9.23;4.30;;;;;;;;;;1035919;28;20817;-78
2022/10/26 01:54:34;;;;;;;8.60;4.85;;;;;;;;;;1034589;28;20068;-78
2022/10/26 01:55:24;;;;;;;10.02;4.13;;;;;;;;;;1030148;28;20457;-79
2022/10/26 01:55:55;;;;;;;6.10;4.32;;;;;;;;;;1018346;28;20036;-79
2022/10/26 01:56:27;;;;;;;10.13;4.20;;;;;;;;;;1030715;28;20027;-79
2022/10/26 01:57:03;;;;;;;9.23;4.28;;;;;;;;;;1029856;28;20030;-79
2022/10/26 01:57:35;;;;;;;8.75;4.18;;;;;;;;;;1031164;28;20157;-79
2022/10/26 01:58:24;;;;;;;8.48;3.95;;;;;;;;;;1033234;28;20414;-79
2022/10/26 01:59:13;;;;;;;10.52;3.92;;;;;;;;;;1032579;28;20105;-79
2022/10/26 01:59:44;;;;;;;6.35;4.15;;;;;;;;;;1031409;28;20064;-78
2022/10/26 02:00:15;;;;;;;8.55;4.43;;;;;;;;;;1031858;28;20037;-77
2022/10/26 02:00:58;;;;;;;7.78;3.83;;;;;;;;;;1033133;28;20030;-78
2022/10/26 02:01:43;;;;;;;16.23;5.53;;;;;;;;;;1032107;28;20022;-79
2022/10/26 02:02:20;;;;;;;11.18;5.00;;;;;;;;;;1026584;28;20023;-78
2022/10/26 02:02:59;;;;;;;12.38;4.30;;;;;;;;;;1029382;28;20022;-79
2022/10/26 02:03:44;;;;;;;9.40;3.67;;;;;;;;;;1031634;28;20058;-80
2022/10/26 02:04:23;;;;;;;10.07;3.88;;;;;;;;;;1036841;28;20053;-77
2022/10/26 02:05:06;;;;;;;13.10;3.72;;;;;;;;;;1034673;28;20515;-79
2022/10/26 02:05:58;;;;;;;4.88;3.35;;;;;;;;;;1031925;28;20030;-79
2022/10/26 02:06:41;;;;;;;6.50;3.38;;;;;;;;;;1031009;28;20049;-79
2022/10/26 02:07:30;;;;;;;7.80;4.57;;;;;;;;;;1034912;28;20021;-79
2022/10/26 02:08:03;;;;;;;6.32;2.72;;;;;;;;;;1033616;28;20490;-79
2022/10/26 02:08:40;;;;;;;5.65;3.47;;;;;;;;;;1036679;28;20022;-79
2022/10/26 02:09:33;;;;;;;7.20;3.45;;;;;;;;;;1031444;28;20026;-77
2022/10/26 02:10:10;;;;;;;10.85;4.03;;;;;;;;;;1029715;28;20034;-78
2022/10/26 02:10:50;;;;;;;7.00;3.30;;;;;;;;;;1031590;28;20038;-79
2022/10/26 02:11:25;;;;;;;7.15;3.35;;;;;;;;;;1030436;28;20027;-77
2022/10/26 02:11:56;;;;;;;5.00;3.25;;;;;;;;;;1031667;28;20490;-80
2022/10/26 02:12:46;;;;;;;6.40;3.00;;;;;;;;;;1030411;28;20053;-80
2022/10/26 02:13:23;;;;;;;11.38;4.18;;;;;;;;;;1028120;28;20022;-79
2022/10/26 02:13:53;;;;;;;8.20;3.40;;;;;;;;;;1031827;28;20133;-78
2022/10/26 02:14:34;;;;;;;6.72;2.60;;;;;;;;;;1029721;28;20557;-79
2022/10/26 02:15:07;;;;;;;7.25;5.10;;;;;;;;;;1031799;28;20491;-78
2022/10/26 02:15:47;;;;;;;5.53;3.53;;;;;;;;;;1031305;28;20060;-78
2022/10/26 02:16:21;;;;;;;6.32;2.58;;;;;;;;;;1033623;28;20026;-79
2022/10/26 02:16:55;;;;;;;6.32;2.63;;;;;;;;;;1033826;28;20525;-78
2022/10/26 02:17:33;;;;;;;5.38;2.92;;;;;;;;;;1033912;28;20030;-79
2022/10/26 02:18:21;;;;;;;9.27;5.28;;;;;;;;;;1034432;28;20022;-80
2022/10/26 02:19:01;;;;;;;8.25;2.28;;;;;;;;;;1033976;28;20159;-79
2022/10/26 02:19:44;;;;;;;5.88;3.05;;;;;;;;;;1032161;28;20025;-79
2022/10/26 02:20:24;;;;;;;4.85;2.42;;;;;;;;;;1030446;28;20073;-79
2022/10/26 02:20:58;;;;;;;6.18;3.25;;;;;;;;;;1026723;28;20030;-79
2022/10/26 02:21:37;;;;;;;6.25;3.72;;;;;;;;;;1024330;28;20027;-79
2022/10/26 02:22:07;;;;;;;4.97;2.22;;;;;;;;;;1024496;28;20449;-79
2022/10/26 02:22:43;;;;;;;7.55;2.83;;;;;;;;;;1027623;28;20038;-78
2022/10/26 02:23:16;;;;;;;6.45;3.63;;;;;;;;;;1030000;28;20035;-79
2022/10/26 02:23:48;;;;;;;4.90;2.63;;;;;;;;;;1031526;28;20026;-78
2022/10/26 02:24:20;;;;;;;7.57;2.70;;;;;;;;;;1031322;28;20503;-79
2022/10/26 02:24:51;;;;;;;6.55;2.70;;;;;;;;;;1035326;28;20367;-78
2022/10/26 02:25:27;;;;;;;7.72;2.97;;;;;;;;;;1034367;28;20075;-78
2022/10/26 02:25:59;;;;;;;8.65;2.92;;;;;;;;;;1034084;28;20137;-78
2022/10/26 02:26:30;;;;;;;5.53;3.05;;;;;;;;;;1033585;28;20064;-78
2022/10/26 02:27:03;;;;;;;6.93;4.18;;;;;;;;;;1034508;28;20113;-78
2022/10/26 02:27:36;;;;;;;5.30;2.78;;;;;;;;;;1035755;28;20025;-79
2022/10/26 02:28:12;;;;;;;3.33;2.10;;;;;;;;;;1031393;28;20465;-79
2022/10/26 02:28:45;;;;;;;14.40;4.07;;;;;;;;;;1032000;28;20018;-78
2022/10/26 02:29:17;;;;;;;10.55;4.60;;;;;;;;;;1031286;28;20034;-79
2022/10/26 02:29:52;;;;;;;7.00;3.85;;;;;;;;;;1028775;28;20035;-79
2022/10/26 02:30:23;;;;;;;8.80;3.47;;;;;;;;;;1030347;28;20028;-79
2022/10/26 02:30:56;;;;;;;5.10;2.80;;;;;;;;;;1029570;28;20065;-79
2022/10/26 02:31:27;;;;;;;6.60;3.60;;;;;;;;;;1030612;28;20033;-79
2022/10/26 02:31:59;;;;;;;7.22;3.03;;;;;;;;;;1030800;28;20021;-78
2022/10/26 02:32:33;;;;;;;6.25;3.08;;;;;;;;;;1031177;28;20648;-79
2022/10/26 02:33:04;;;;;;;8.32;4.22;;;;;;;;;;1026802;28;20050;-79
2022/10/26 02:33:39;;;;;;;3.85;2.05;;;;;;;;;;1030185;28;20038;-79
2022/10/26 02:34:12;;;;;;;5.25;3.30;;;;;;;;;;1026899;28;20092;-79
2022/10/26 02:34:44;;;;;;;5.40;2.83;;;;;;;;;;1031618;28;20077;-79
2022/10/26 02:35:15;;;;;;;4.82;3.22;;;;;;;;;;1030121;28;20060;-79
2022/10/26 02:35:47;;;;;;;6.63;2.97;;;;;;;;;;1029435;28;20026;-79
2022/10/26 02:36:22;;;;;;;10.90;3.83;;;;;;;;;;1030354;28;20025;-79
2022/10/26 02:36:54;;;;;;;5.18;3.42;;;;;;;;;;1031937;28;20105;-79
2022/10/26 02:37:26;;;;;;;5.10;2.88;;;;;;;;;;1031256;28;20088;-79
2022/10/26 02:37:58;;;;;;;8.10;3.22;;;;;;;;;;1029919;28;20026;-79
2022/10/26 02:38:30;;;;;;;6.97;4.03;;;;;;;;;;1026083;28;20174;-79
2022/10/26 02:39:02;;;;;;;4.68;2.92;;;;;;;;;;1027403;28;20113;-80
2022/10/26 02:39:34;;;;;;;6.30;3.22;;;;;;;;;;1023944;28;20077;-80
2022/10/26 02:40:11;;;;;;;3.50;2.08;;;;;;;;;;1027457;28;20027;-79
2022/10/26 02:40:42;;;;;;;7.90;3.53;;;;;;;;;;1029717;28;20569;-79
2022/10/26 02:41:13;;;;;;;7.07;3.95;;;;;;;;;;1032675;28;20042;-79
2022/10/26 02:41:44;;;;;;;4.97;3.03;;;;;;;;;;1032964;28;20033;-79
2022/10/26 02:42:17;;;;;;;6.03;2.88;;;;;;;;;;1030537;28;20097;-79
2022/10/26 02:42:49;;;;;;;7.10;2.72;;;;;;;;;;1032319;28;20526;-80
2022/10/26 02:43:21;;;;;;;7.90;3.45;;;;;;;;;;1031092;28;20038;-78
2022/10/26 02:43:59;;;;;;;6.32;2.22;;;;;;;;;;1029626;28;20018;-79
2022/10/26 02:44:32;;;;;;;7.72;2.70;;;;;;;;;;1028750;28;20221;-79
2022/10/26 02:45:05;;;;;;;6.63;2.92;;;;;;;;;;1027770;28;20478;-78
2022/10/26 02:45:40;;;;;;;4.47;2.63;;;;;;;;;;1031336;28;20105;-78
2022/10/26 02:46:15;;;;;;;2.60;1.77;;;;;;;;;;1028366;28;20032;-79
2022/10/26 02:46:46;;;;;;;3.60;2.60;;;;;;;;;;1030377;28;20037;-79
2022/10/26 02:47:21;;;;;;;5.30;1.92;;;;;;;;;;1027143;28;20069;-80
2022/10/26 02:47:53;;;;;;;7.78;2.47;;;;;;;;;;1027270;28;20471;-79
2022/10/26 02:48:27;;;;;;;3.08;2.05;;;;;;;;;;1027233;28;20347;-79
2022/10/26 02:49:01;;;;;;;7.95;3.20;;;;;;;;;;1026004;28;20138;-80
2022/10/26 02:49:32;;;;;;;5.75;2.03;;;;;;;;;;1028482;28;20046;-79
2022/10/26 02:50:03;;;;;;;4.68;2.50;;;;;;;;;;1028786;28;20034;-79
2022/10/26 02:50:41;;;;;;;5.50;1.48;;;;;;;;;;1026509;28;20041;-79
2022/10/26 02:51:17;;;;;;;6.07;2.72;;;;;;;;;;1028575;28;20077;-78
2022/10/26 02:51:54;;;;;;;8.50;3.03;;;;;;;;;;1029780;28;20026;-78
2022/10/26 02:52:32;;;;;;;5.55;1.85;;;;;;;;;;1029627;28;20036;-79
2022/10/26 02:53:09;;;;;;;4.93;2.72;;;;;;;;;;1030965;28;20117;-78
2022/10/26 02:53:52;;;;;;;5.15;3.15;;;;;;;;;;1031007;28;20398;-78
2022/10/26 02:54:31;;;;;;;8.35;3.95;;;;;;;;;;1028880;28;20026;-79
2022/10/26 02:55:18;;;;;;;5.88;2.25;;;;;;;;;;1028009;28;20030;-79
2022/10/26 02:55:49;;;;;;;7.47;4.30;;;;;;;;;;1031026;28;20033;-78
2022/10/26 02:56:23;;;;;;;11.05;4.82;;;;;;;;;;1030973;28;20030;-79
2022/10/26 02:56:57;;;;;;;5.25;2.58;;;;;;;;;;1030640;28;20040;-79
2022/10/26 02:57:38;;;;;;;7.15;3.17;;;;;;;;;;1029821;28;20397;-78
2022/10/26 02:58:12;;;;;;;7.45;3.85;;;;;;;;;;1029691;28;20023;-79
2022/10/26 02:58:45;;;;;;;9.88;4.22;;;;;;;;;;1031085;28;20052;-78
2022/10/26 02:59:18;;;;;;;6.10;2.97;;;;;;;;;;1032879;28;20536;-79
2022/10/26 02:59:48;;;;;;;4.50;3.03;;;;;;;;;;1028753;28;20027;-79
2022/10/26 03:00:19;;;;;;;9.10;4.00;;;;;;;;;;1026711;28;20912;-79
2022/10/26 03:00:50;;;;;;;6.43;2.80;;;;;;;;;;1032015;28;20029;-79
2022/10/26 03:01:21;;;;;;;7.45;3.03;;;;;;;;;;1031634;28;20030;-79
2022/10/26 03:01:52;;;;;;;7.50;3.35;;;;;;;;;;1034455;28;20022;-80
2022/10/26 03:02:24;;;;;;;7.43;2.97;;;;;;;;;;1030032;28;20039;-78
2022/10/26 03:02:56;;;;;;;9.20;5.10;;;;;;;;;;1034076;28;20062;-79
2022/10/26 03:03:27;;;;;;;8.18;3.95;;;;;;;;;;1032815;28;20022;-79
2022/10/26 03:03:59;;;;;;;7.32;3.28;;;;;;;;;;1029172;28;20094;-80
2022/10/26 03:04:30;;;;;;;9.48;3.50;;;;;;;;;;1033990;28;20507;-79
2022/10/26 03:05:20;;;;;;;12.00;3.45;;;;;;;;;;1028214;28;20030;-79
2022/10/26 03:05:51;;;;;;;7.97;4.18;;;;;;;;;;1030432;28;20030;-79
2022/10/26 03:06:22;;;;;;;5.30;2.63;;;;;;;;;;1031372;28;20034;-79
2022/10/26 03:06:53;;;;;;;4.88;2.70;;;;;;;;;;1029963;28;20170;-79
2022/10/26 03:07:24;;;;;;;7.68;4.38;;;;;;;;;;1030016;28;20129;-79
2022/10/26 03:07:55;;;;;;;8.98;3.50;;;;;;;;;;1030756;28;20042;-81
2022/10/26 03:08:26;;;;;;;9.05;3.80;;;;;;;;;;1031798;28;20022;-82
2022/10/26 03:08:58;;;;;;;12.83;3.60;;;;;;;;;;1159075;22;20013;-79
2022/10/26 03:10:13;;;;;;;;;;;;;;;;;;1114559;23;20020;-83
2022/10/26 03:14:09;;;;;;;9.02;3.42;;;;;;;;;;1145805;22;20053;-80
2022/10/26 03:28:38;;;;;;;;;;;;;;;;;;1058878;23;20040;-82
2022/10/26 03:29:49;;;;;;;10.40;3.05;;;;;;;;;;1216382;22;20106;-82
2022/10/26 03:36:22;;;;;;;3.95;2.63;;;;;;;;;;1142342;22;19997;-80
2022/10/26 03:36:53;;;;;;;8.75;3.10;;;;;;;;;;1132970;23;20118;-82
2022/10/26 03:38:04;;;;;;;5.88;3.20;;;;;;;;;;1167618;22;20012;-80
2022/10/26 03:39:47;;;;;;;7.72;3.25;;;;;;;;;;1041093;28;19920;-82
2022/10/26 03:42:18;;;;;;;;;;;;;;;;;;1107117;22;20079;-81
2022/10/26 03:42:48;;;;;;;8.30;2.88;;;;;;;;;;1076111;22;19962;-80
2022/10/26 03:43:19;;;;;;;11.88;3.45;;;;;;;;;;1041971;28;20048;-80
2022/10/26 03:43:49;;;;;;;7.72;3.40;;;;;;;;;;1041425;28;20154;-81
2022/10/26 03:44:22;;;;;;;9.15;4.22;;;;;;;;;;1041690;28;21588;-80
2022/10/26 03:44:53;;;;;;;5.65;3.33;;;;;;;;;;1043689;28;20013;-81
2022/10/26 03:45:26;;;;;;;5.32;2.95;;;;;;;;;;1040749;28;20080;-82
2022/10/26 03:46:58;;;;;;;8.88;3.78;;;;;;;;;;989214;23;20084;-80
2022/10/26 03:47:28;;;;;;;8.98;3.75;;;;;;;;;;1041028;28;20680;-81
2022/10/26 03:47:59;;;;;;;22.15;4.50;;;;;;;;;;1038426;28;20057;-82
2022/10/26 03:48:30;;;;;;;7.50;2.83;;;;;;;;;;1038772;28;20044;-81
2022/10/26 03:49:00;;;;;;;6.68;4.15;;;;;;;;;;1033082;28;20015;-82
2022/10/26 03:49:31;;;;;;;7.13;3.28;;;;;;;;;;1032196;28;20549;-82
2022/10/26 03:50:02;;;;;;;4.72;2.40;;;;;;;;;;1030586;28;20064;-81
2022/10/26 03:50:32;;;;;;;8.40;3.65;;;;;;;;;;1036191;28;20117;-80